Alfonso, VA

9:05 PM EDT on September 15, 2014 (GMT -0400)
Drum Point | Change Station
CLOSE
Current Station
Personal Weather Station
Location: Lancaster, VA
Elevation: 30 ft
Nearby Weather Stations

Elev 30 ft 37.73 °N, 76.51 °W | Updated 31 seconds ago

Mostly Cloudy
Mostly Cloudy
69.3 °F
Feels Like 69.3 °F
N
2.0
Wind Variable Wind from SSW
Gusts 8.0 mph

Today
High -- | Low -- °F
--% Chance of Precip.
Yesterday
High -- | Low -- °F
Precip. -- in
6:47 AM 7:13 PM
Waning Gibbous, 50% visible
Pressure 30.12 in
Visibility 10.0 miles
Clouds Scattered Clouds 5000 ft
Dew Point 63 °F
Humidity 80%
Rainfall 0.00 in
Snow Depth Not available.
UV 0 out of 12
Pollen 6.90 out of 12
Air Quality Not available.
Flu Activity Not available.
METAR KXSA 160055Z AUTO 16004KT 10SM SCT050 20/15 A3012 RMK AO2 T01970150

More Conditions Fewer Conditions

Pressure 30.12 in
Visibility 10.0 miles
Clouds Scattered Clouds 5000 ft
Dew Point 63 °F
Humidity 80%
Rainfall 0.00 in
Snow Depth Not available.
UV 0 out of 12
Pollen 6.90 out of 12
Air Quality Not available.
Flu Activity Not available.
METAR KXSA 160055Z AUTO 16004KT 10SM SCT050 20/15 A3012 RMK AO2 T01970150

More Conditions Fewer Conditions

10-Day Weather Forecast

Almanac

Astronomy

Sep. 15, 2014 Rise Set
Actual Time 6:47 AM EDT 7:13 PM EDT
Civil Twilight 6:21 AM EDT 7:40 PM EDT
Nautical Twilight 5:50 AM EDT 8:11 PM EDT
Astronomical Twilight 5:18 AM EDT 8:42 PM EDT
Moon No Moon Rise 1:39 PM EDT (9/15)
Length of Visible Light 13h 18m
Length of Day
12h 26m
Tomorrow will be 2m 23s shorter.
Waning Gibbous, 50% of the Moon is Illuminated
Today
Waning Gibbous
Sep 15
Last Quarter
Sep 24
New
Oct 1
First Quarter
Oct 8
Full

Today's Extremes

State Highs State Lows

Community

WunderPhotos

Upload Photos

1,753,630 photos uploaded!

WunderBlogs® & News

Nearby

Snow Depth

Station Depth Elevation
No new snow has been reported.

Earthquake Activity

City Distance Mag. Time & Date
No recent earthquake activity has been reported nearby.
Minimum magnitude displayed is 2.5.

Coastal Water Temperatures

Place Temperature
No Stations Reporting

Nearby Weather Stations